PWSweather.com
Personal Weather Stations
Station Observations
EDGELEY
Edgeley, Nd, Edgeley, ND 58433

Edgeley, NdEdgeley, ND 58433

Lat: 46.3599246, Lon: -98.7144392

Elevation: 1575

Station Type: Davis/Vantage Pro

www.edgeleyweather.com

High Low Average
Temperature 16.4°F-8.7°C -4.0°F-20.0°C 9.2°F-12.7°C
Dew Point 12.8°F-10.7°C -7.6°F-22.0°C 5.2°F-14.9°C
Winds 12.0 mph 19.3 kmh Calm Calm 3.0 mph N4.8 kmh N
Wind Gusts 14.0 mph22.5 kmh -- 5.0 mph8.0 kmh
Humidity 87% 79% 84%
Pressure 30.48 in1032.2 mb 30.13 in1020.3 mb -
Precipitation 0.00 in0.0 mm - -
Hour Temp Dew Point Humidity Winds Wind Gusts Pressure Precip Precip Rate Daily Precip Total
12:00 AM 4.4°F-15.3°C 0.4°F-17.6°C 83% 4.0 mph N6.4 kmh N 4.0 mph6.4 kmh 30.17 in1021.7 mb 0.00 in0.0 mm 0.00 in0.0 mm 0.00 in0.0 mm
12:05 AM 4.5°F-15.3°C 0.5°F-17.5°C 83% 4.0 mph N6.4 kmh N 7.0 mph11.3 kmh 30.17 in1021.7 mb 0.00 in0.0 mm 0.00 in0.0 mm 0.00 in0.0 mm
12:10 AM 4.6°F-15.2°C 0.8°F-17.3°C 84% 4.0 mph N6.4 kmh N 7.0 mph11.3 kmh 30.17 in1021.7 mb 0.00 in0.0 mm 0.00 in0.0 mm 0.00 in0.0 mm
12:15 AM 4.7°F-15.2°C 0.7°F-17.4°C 83% 3.0 mph N4.8 kmh N 5.0 mph8.0 kmh 30.17 in1021.7 mb 0.00 in0.0 mm 0.00 in0.0 mm 0.00 in0.0 mm
12:20 AM 4.8°F-15.1°C 0.8°F-17.3°C 83% 4.0 mph N6.4 kmh N 6.0 mph9.7 kmh 30.17 in1021.7 mb 0.00 in0.0 mm 0.00 in0.0 mm 0.00 in0.0 mm
12:25 AM 4.9°F-15.1°C 0.9°F-17.3°C 83% 1.0 mph N1.6 kmh N 6.0 mph9.7 kmh 30.17 in1021.7 mb 0.00 in0.0 mm 0.00 in0.0 mm 0.00 in0.0 mm
12:30 AM 5.0°F-15.0°C 1.0°F-17.2°C 83% 3.0 mph N4.8 kmh N 3.0 mph4.8 kmh 30.16 in1021.3 mb 0.00 in0.0 mm 0.00 in0.0 mm 0.00 in0.0 mm
12:35 AM 4.9°F-15.1°C 0.9°F-17.3°C 83% 2.0 mph N3.2 kmh N 4.0 mph6.4 kmh 30.16 in1021.3 mb 0.00 in0.0 mm 0.00 in0.0 mm 0.00 in0.0 mm
12:40 AM 4.8°F-15.1°C 0.8°F-17.3°C 83% 2.0 mph N3.2 kmh N 4.0 mph6.4 kmh 30.16 in1021.3 mb 0.00 in0.0 mm 0.00 in0.0 mm 0.00 in0.0 mm
12:45 AM 4.6°F-15.2°C 0.3°F-17.6°C 82% 3.0 mph N4.8 kmh N 4.0 mph6.4 kmh 30.16 in1021.3 mb 0.00 in0.0 mm 0.00 in0.0 mm 0.00 in0.0 mm
12:50 AM 4.5°F-15.3°C 0.2°F-17.7°C 82% 2.0 mph N3.2 kmh N 4.0 mph6.4 kmh 30.16 in1021.3 mb 0.00 in0.0 mm 0.00 in0.0 mm 0.00 in0.0 mm
12:55 AM 4.5°F-15.3°C 0.5°F-17.5°C 83% 4.0 mph N6.4 kmh N 5.0 mph8.0 kmh 30.15 in1021.0 mb 0.00 in0.0 mm 0.00 in0.0 mm 0.00 in0.0 mm
01:00 AM 4.4°F-15.3°C 0.4°F-17.6°C 83% 3.0 mph N4.8 kmh N 3.0 mph4.8 kmh 30.15 in1021.0 mb 0.00 in0.0 mm 0.00 in0.0 mm 0.00 in0.0 mm
01:05 AM 4.7°F-15.2°C 0.9°F-17.3°C 84% 3.0 mph N4.8 kmh N 6.0 mph9.7 kmh 30.14 in1020.7 mb 0.00 in0.0 mm 0.00 in0.0 mm 0.00 in0.0 mm
01:10 AM 5.3°F-14.8°C 1.8°F-16.8°C 85% 2.0 mph N3.2 kmh N 6.0 mph9.7 kmh 30.14 in1020.7 mb 0.00 in0.0 mm 0.00 in0.0 mm 0.00 in0.0 mm
01:15 AM 5.7°F-14.6°C 1.9°F-16.7°C 84% 1.0 mph N1.6 kmh N 2.0 mph3.2 kmh 30.14 in1020.7 mb 0.00 in0.0 mm 0.00 in0.0 mm 0.00 in0.0 mm
01:20 AM 6.0°F-14.4°C 2.2°F-16.6°C 84% 2.0 mph N3.2 kmh N 2.0 mph3.2 kmh 30.13 in1020.3 mb 0.00 in0.0 mm 0.00 in0.0 mm 0.00 in0.0 mm
01:25 AM 6.1°F-14.4°C 2.1°F-16.6°C 83% 1.0 mph N1.6 kmh N 3.0 mph4.8 kmh 30.13 in1020.3 mb 0.00 in0.0 mm 0.00 in0.0 mm 0.00 in0.0 mm
01:30 AM 6.3°F-14.3°C 2.3°F-16.5°C 83% 1.0 mph N1.6 kmh N 1.0 mph1.6 kmh 30.14 in1020.7 mb 0.00 in0.0 mm 0.00 in0.0 mm 0.00 in0.0 mm
01:35 AM 6.4°F-14.2°C 2.4°F-16.4°C 83% Calm Calm 2.0 mph3.2 kmh 30.14 in1020.7 mb 0.00 in0.0 mm 0.00 in0.0 mm 0.00 in0.0 mm
01:40 AM 6.5°F-14.2°C 2.2°F-16.6°C 82% 3.0 mph N4.8 kmh N 3.0 mph4.8 kmh 30.15 in1021.0 mb 0.00 in0.0 mm 0.00 in0.0 mm 0.00 in0.0 mm
01:45 AM 6.3°F-14.3°C 1.7°F-16.8°C 81% 3.0 mph N4.8 kmh N 3.0 mph4.8 kmh 30.15 in1021.0 mb 0.00 in0.0 mm 0.00 in0.0 mm 0.00 in0.0 mm
01:50 AM 6.2°F-14.3°C 1.6°F-16.9°C 81% 2.0 mph N3.2 kmh N 4.0 mph6.4 kmh 30.15 in1021.0 mb 0.00 in0.0 mm 0.00 in0.0 mm 0.00 in0.0 mm
01:55 AM 5.9°F-14.5°C 1.3°F-17.1°C 81% 4.0 mph N6.4 kmh N 4.0 mph6.4 kmh 30.15 in1021.0 mb 0.00 in0.0 mm 0.00 in0.0 mm 0.00 in0.0 mm
02:00 AM 5.6°F-14.7°C 1.0°F-17.2°C 81% 3.0 mph N4.8 kmh N 5.0 mph8.0 kmh 30.15 in1021.0 mb 0.00 in0.0 mm 0.00 in0.0 mm 0.00 in0.0 mm
02:05 AM 5.4°F-14.8°C 1.1°F-17.2°C 82% 1.0 mph N1.6 kmh N 5.0 mph8.0 kmh 30.15 in1021.0 mb 0.00 in0.0 mm 0.00 in0.0 mm 0.00 in0.0 mm
02:10 AM 5.4°F-14.8°C 1.4°F-17.0°C 83% 3.0 mph N4.8 kmh N 5.0 mph8.0 kmh 30.15 in1021.0 mb 0.00 in0.0 mm 0.00 in0.0 mm 0.00 in0.0 mm
02:15 AM 5.5°F-14.7°C 1.5°F-16.9°C 83% 4.0 mph N6.4 kmh N 4.0 mph6.4 kmh 30.15 in1021.0 mb 0.00 in0.0 mm 0.00 in0.0 mm 0.00 in0.0 mm
02:20 AM 5.4°F-14.8°C 1.1°F-17.2°C 82% 4.0 mph N6.4 kmh N 4.0 mph6.4 kmh 30.15 in1021.0 mb 0.00 in0.0 mm 0.00 in0.0 mm 0.00 in0.0 mm
02:25 AM 5.3°F-14.8°C 1.0°F-17.2°C 82% 2.0 mph N3.2 kmh N 4.0 mph6.4 kmh 30.16 in1021.3 mb 0.00 in0.0 mm 0.00 in0.0 mm 0.00 in0.0 mm
02:30 AM 5.1°F-14.9°C 0.8°F-17.3°C 82% 2.0 mph N3.2 kmh N 3.0 mph4.8 kmh 30.15 in1021.0 mb 0.00 in0.0 mm 0.00 in0.0 mm 0.00 in0.0 mm
02:35 AM 5.0°F-15.0°C 1.0°F-17.2°C 83% 3.0 mph N4.8 kmh N 5.0 mph8.0 kmh 30.15 in1021.0 mb 0.00 in0.0 mm 0.00 in0.0 mm 0.00 in0.0 mm
02:40 AM 5.2°F-14.9°C 1.2°F-17.1°C 83% 2.0 mph N3.2 kmh N 5.0 mph8.0 kmh 30.15 in1021.0 mb 0.00 in0.0 mm 0.00 in0.0 mm 0.00 in0.0 mm
02:45 AM 5.4°F-14.8°C 1.6°F-16.9°C 84% 3.0 mph N4.8 kmh N 3.0 mph4.8 kmh 30.16 in1021.3 mb 0.00 in0.0 mm 0.00 in0.0 mm 0.00 in0.0 mm
02:50 AM 5.4°F-14.8°C 1.4°F-17.0°C 83% 2.0 mph N3.2 kmh N 3.0 mph4.8 kmh 30.16 in1021.3 mb 0.00 in0.0 mm 0.00 in0.0 mm 0.00 in0.0 mm
02:55 AM 5.5°F-14.7°C 1.5°F-16.9°C 83% 3.0 mph N4.8 kmh N 4.0 mph6.4 kmh 30.16 in1021.3 mb 0.00 in0.0 mm 0.00 in0.0 mm 0.00 in0.0 mm
03:00 AM 5.9°F-14.5°C 2.1°F-16.6°C 84% 3.0 mph N4.8 kmh N 4.0 mph6.4 kmh 30.16 in1021.3 mb 0.00 in0.0 mm 0.00 in0.0 mm 0.00 in0.0 mm
03:05 AM 6.3°F-14.3°C 2.5°F-16.4°C 84% 1.0 mph N1.6 kmh N 4.0 mph6.4 kmh 30.16 in1021.3 mb 0.00 in0.0 mm 0.00 in0.0 mm 0.00 in0.0 mm
03:10 AM 6.5°F-14.2°C 2.7°F-16.3°C 84% 2.0 mph N3.2 kmh N 4.0 mph6.4 kmh 30.15 in1021.0 mb 0.00 in0.0 mm 0.00 in0.0 mm 0.00 in0.0 mm
03:15 AM 6.8°F-14.0°C 3.0°F-16.1°C 84% 2.0 mph N3.2 kmh N 3.0 mph4.8 kmh 30.15 in1021.0 mb 0.00 in0.0 mm 0.00 in0.0 mm 0.00 in0.0 mm
03:20 AM 7.2°F-13.8°C 3.4°F-15.9°C 84% 2.0 mph N3.2 kmh N 4.0 mph6.4 kmh 30.15 in1021.0 mb 0.00 in0.0 mm 0.00 in0.0 mm 0.00 in0.0 mm
03:25 AM 7.5°F-13.6°C 3.7°F-15.7°C 84% Calm Calm 4.0 mph6.4 kmh 30.15 in1021.0 mb 0.00 in0.0 mm 0.00 in0.0 mm 0.00 in0.0 mm
03:30 AM 7.8°F-13.4°C 4.0°F-15.6°C 84% Calm Calm -- 30.15 in1021.0 mb 0.00 in0.0 mm 0.00 in0.0 mm 0.00 in0.0 mm
03:35 AM 8.1°F-13.3°C 4.0°F-15.6°C 83% 2.0 mph N3.2 kmh N 2.0 mph3.2 kmh 30.15 in1021.0 mb 0.00 in0.0 mm 0.00 in0.0 mm 0.00 in0.0 mm
03:40 AM 8.3°F-13.2°C 4.2°F-15.4°C 83% 2.0 mph N3.2 kmh N 2.0 mph3.2 kmh 30.15 in1021.0 mb 0.00 in0.0 mm 0.00 in0.0 mm 0.00 in0.0 mm
03:45 AM 8.4°F-13.1°C 4.1°F-15.5°C 82% 2.0 mph N3.2 kmh N 2.0 mph3.2 kmh 30.15 in1021.0 mb 0.00 in0.0 mm 0.00 in0.0 mm 0.00 in0.0 mm
03:50 AM 8.4°F-13.1°C 4.1°F-15.5°C 82% 2.0 mph N3.2 kmh N 4.0 mph6.4 kmh 30.15 in1021.0 mb 0.00 in0.0 mm 0.00 in0.0 mm 0.00 in0.0 mm
03:55 AM 8.3°F-13.2°C 4.0°F-15.6°C 82% 2.0 mph N3.2 kmh N 4.0 mph6.4 kmh 30.15 in1021.0 mb 0.00 in0.0 mm 0.00 in0.0 mm 0.00 in0.0 mm
04:00 AM 8.3°F-13.2°C 4.0°F-15.6°C 82% 3.0 mph N4.8 kmh N 4.0 mph6.4 kmh 30.15 in1021.0 mb 0.00 in0.0 mm 0.00 in0.0 mm 0.00 in0.0 mm
04:05 AM 8.3°F-13.2°C 4.0°F-15.6°C 82% 3.0 mph N4.8 kmh N 4.0 mph6.4 kmh 30.15 in1021.0 mb 0.00 in0.0 mm 0.00 in0.0 mm 0.00 in0.0 mm
04:10 AM 8.3°F-13.2°C 4.2°F-15.4°C 83% 4.0 mph N6.4 kmh N 4.0 mph6.4 kmh 30.14 in1020.7 mb 0.00 in0.0 mm 0.00 in0.0 mm 0.00 in0.0 mm
04:15 AM 8.4°F-13.1°C 4.3°F-15.4°C 83% 3.0 mph N4.8 kmh N 4.0 mph6.4 kmh 30.14 in1020.7 mb 0.00 in0.0 mm 0.00 in0.0 mm 0.00 in0.0 mm
04:20 AM 8.5°F-13.1°C 4.4°F-15.3°C 83% 4.0 mph N6.4 kmh N 7.0 mph11.3 kmh 30.14 in1020.7 mb 0.00 in0.0 mm 0.00 in0.0 mm 0.00 in0.0 mm
04:25 AM 8.7°F-12.9°C 4.9°F-15.1°C 84% 3.0 mph N4.8 kmh N 7.0 mph11.3 kmh 30.14 in1020.7 mb 0.00 in0.0 mm 0.00 in0.0 mm 0.00 in0.0 mm
04:30 AM 8.8°F-12.9°C 4.7°F-15.2°C 83% 2.0 mph N3.2 kmh N 3.0 mph4.8 kmh 30.14 in1020.7 mb 0.00 in0.0 mm 0.00 in0.0 mm 0.00 in0.0 mm
04:35 AM 9.0°F-12.8°C 4.9°F-15.1°C 83% 4.0 mph N6.4 kmh N 4.0 mph6.4 kmh 30.14 in1020.7 mb 0.00 in0.0 mm 0.00 in0.0 mm 0.00 in0.0 mm
04:40 AM 9.1°F-12.7°C 5.0°F-15.0°C 83% 2.0 mph N3.2 kmh N 5.0 mph8.0 kmh 30.14 in1020.7 mb 0.00 in0.0 mm 0.00 in0.0 mm 0.00 in0.0 mm
04:45 AM 9.3°F-12.6°C 5.5°F-14.7°C 84% 2.0 mph N3.2 kmh N 4.0 mph6.4 kmh 30.13 in1020.3 mb 0.00 in0.0 mm 0.00 in0.0 mm 0.00 in0.0 mm
04:50 AM 9.5°F-12.5°C 5.7°F-14.6°C 84% 1.0 mph N1.6 kmh N 4.0 mph6.4 kmh 30.14 in1020.7 mb 0.00 in0.0 mm 0.00 in0.0 mm 0.00 in0.0 mm
04:55 AM 9.8°F-12.3°C 5.9°F-14.5°C 84% 2.0 mph N3.2 kmh N 4.0 mph6.4 kmh 30.14 in1020.7 mb 0.00 in0.0 mm 0.00 in0.0 mm 0.00 in0.0 mm
05:00 AM 10.0°F-12.2°C 5.9°F-14.5°C 83% 1.0 mph N1.6 kmh N 2.0 mph3.2 kmh 30.14 in1020.7 mb 0.00 in0.0 mm 0.00 in0.0 mm 0.00 in0.0 mm
05:05 AM 10.2°F-12.1°C 6.1°F-14.4°C 83% 2.0 mph N3.2 kmh N 4.0 mph6.4 kmh 30.14 in1020.7 mb 0.00 in0.0 mm 0.00 in0.0 mm 0.00 in0.0 mm
05:10 AM 10.3°F-12.1°C 6.2°F-14.3°C 83% 2.0 mph N3.2 kmh N 4.0 mph6.4 kmh 30.14 in1020.7 mb 0.00 in0.0 mm 0.00 in0.0 mm 0.00 in0.0 mm
05:15 AM 10.5°F-11.9°C 6.4°F-14.2°C 83% 2.0 mph N3.2 kmh N 2.0 mph3.2 kmh 30.14 in1020.7 mb 0.00 in0.0 mm 0.00 in0.0 mm 0.00 in0.0 mm
05:20 AM 10.5°F-11.9°C 6.4°F-14.2°C 83% 2.0 mph N3.2 kmh N 4.0 mph6.4 kmh 30.14 in1020.7 mb 0.00 in0.0 mm 0.00 in0.0 mm 0.00 in0.0 mm
05:25 AM 10.6°F-11.9°C 6.5°F-14.2°C 83% 1.0 mph N1.6 kmh N 4.0 mph6.4 kmh 30.14 in1020.7 mb 0.00 in0.0 mm 0.00 in0.0 mm 0.00 in0.0 mm
05:30 AM 10.7°F-11.8°C 6.6°F-14.1°C 83% 1.0 mph N1.6 kmh N 1.0 mph1.6 kmh 30.14 in1020.7 mb 0.00 in0.0 mm 0.00 in0.0 mm 0.00 in0.0 mm
05:35 AM 10.8°F-11.8°C 6.9°F-13.9°C 84% 2.0 mph N3.2 kmh N 3.0 mph4.8 kmh 30.15 in1021.0 mb 0.00 in0.0 mm 0.00 in0.0 mm 0.00 in0.0 mm
05:40 AM 10.8°F-11.8°C 6.9°F-13.9°C 84% 2.0 mph N3.2 kmh N 3.0 mph4.8 kmh 30.15 in1021.0 mb 0.00 in0.0 mm 0.00 in0.0 mm 0.00 in0.0 mm
05:45 AM 10.7°F-11.8°C 6.8°F-14.0°C 84% Calm Calm -- 30.15 in1021.0 mb 0.00 in0.0 mm 0.00 in0.0 mm 0.00 in0.0 mm
05:50 AM 10.9°F-11.7°C 7.3°F-13.7°C 85% 1.0 mph N1.6 kmh N 2.0 mph3.2 kmh 30.15 in1021.0 mb 0.00 in0.0 mm 0.00 in0.0 mm 0.00 in0.0 mm
05:55 AM 11.0°F-11.7°C 7.4°F-13.7°C 85% 1.0 mph N1.6 kmh N 3.0 mph4.8 kmh 30.15 in1021.0 mb 0.00 in0.0 mm 0.00 in0.0 mm 0.00 in0.0 mm
06:00 AM 11.0°F-11.7°C 7.4°F-13.7°C 85% 1.0 mph N1.6 kmh N 1.0 mph1.6 kmh 30.16 in1021.3 mb 0.00 in0.0 mm 0.00 in0.0 mm 0.00 in0.0 mm
06:05 AM 11.1°F-11.6°C 7.5°F-13.6°C 85% Calm Calm 1.0 mph1.6 kmh 30.16 in1021.3 mb 0.00 in0.0 mm 0.00 in0.0 mm 0.00 in0.0 mm
06:10 AM 11.2°F-11.6°C 7.6°F-13.6°C 85% 1.0 mph N1.6 kmh N 2.0 mph3.2 kmh 30.16 in1021.3 mb 0.00 in0.0 mm 0.00 in0.0 mm 0.00 in0.0 mm
06:15 AM 11.1°F-11.6°C 7.5°F-13.6°C 85% 2.0 mph N3.2 kmh N 2.0 mph3.2 kmh 30.16 in1021.3 mb 0.00 in0.0 mm 0.00 in0.0 mm 0.00 in0.0 mm
06:20 AM 11.1°F-11.6°C 7.5°F-13.6°C 85% 1.0 mph N1.6 kmh N 2.0 mph3.2 kmh 30.16 in1021.3 mb 0.00 in0.0 mm 0.00 in0.0 mm 0.00 in0.0 mm
06:25 AM 11.1°F-11.6°C 7.7°F-13.5°C 86% Calm Calm 2.0 mph3.2 kmh 30.16 in1021.3 mb 0.00 in0.0 mm 0.00 in0.0 mm 0.00 in0.0 mm
06:30 AM 11.3°F-11.5°C 7.9°F-13.4°C 86% Calm Calm -- 30.16 in1021.3 mb 0.00 in0.0 mm 0.00 in0.0 mm 0.00 in0.0 mm
06:35 AM 11.4°F-11.4°C 8.0°F-13.3°C 86% Calm Calm -- 30.16 in1021.3 mb 0.01 in0.3 mm 0.12 in3.0 mm 0.01 in0.3 mm
06:40 AM 11.7°F-11.3°C 8.3°F-13.2°C 86% Calm Calm 1.0 mph1.6 kmh 30.16 in1021.3 mb 0.01 in0.3 mm 0.00 in0.0 mm 0.01 in0.3 mm
06:45 AM 12.0°F-11.1°C 8.6°F-13.0°C 86% Calm Calm 1.0 mph1.6 kmh 30.15 in1021.0 mb 0.02 in0.5 mm 0.12 in3.0 mm 0.02 in0.5 mm
06:50 AM 12.4°F-10.9°C 9.0°F-12.8°C 86% Calm Calm 1.0 mph1.6 kmh 30.16 in1021.3 mb 0.02 in0.5 mm 0.00 in0.0 mm 0.02 in0.5 mm
06:55 AM 12.9°F-10.6°C 9.3°F-12.6°C 85% Calm Calm 1.0 mph1.6 kmh 30.16 in1021.3 mb 0.02 in0.5 mm 0.00 in0.0 mm 0.02 in0.5 mm
07:00 AM 13.1°F-10.5°C 9.2°F-12.7°C 84% 1.0 mph N1.6 kmh N 1.0 mph1.6 kmh 30.16 in1021.3 mb 0.03 in0.8 mm 0.01 in0.3 mm 0.03 in0.8 mm
07:05 AM 13.0°F-10.6°C 9.1°F-12.7°C 84% 2.0 mph N3.2 kmh N 2.0 mph3.2 kmh 30.16 in1021.3 mb 0.03 in0.8 mm 0.00 in0.0 mm 0.03 in0.8 mm
07:10 AM 12.9°F-10.6°C 9.0°F-12.8°C 84% Calm Calm 2.0 mph3.2 kmh 30.16 in1021.3 mb 0.03 in0.8 mm 0.00 in0.0 mm 0.03 in0.8 mm
07:15 AM 13.0°F-10.6°C 9.1°F-12.7°C 84% Calm Calm -- 30.17 in1021.7 mb 0.03 in0.8 mm 0.00 in0.0 mm 0.03 in0.8 mm
07:20 AM 13.1°F-10.5°C 9.2°F-12.7°C 84% Calm Calm 1.0 mph1.6 kmh 30.17 in1021.7 mb 0.03 in0.8 mm 0.00 in0.0 mm 0.03 in0.8 mm
07:25 AM 13.1°F-10.5°C 9.2°F-12.7°C 84% Calm Calm 1.0 mph1.6 kmh 30.17 in1021.7 mb 0.03 in0.8 mm 0.00 in0.0 mm 0.03 in0.8 mm
07:30 AM 13.0°F-10.6°C 8.8°F-12.9°C 83% Calm Calm -- 30.17 in1021.7 mb 0.04 in1.0 mm 0.12 in3.0 mm 0.04 in1.0 mm
07:35 AM 12.7°F-10.7°C 8.8°F-12.9°C 84% 1.0 mph N1.6 kmh N 1.0 mph1.6 kmh 30.18 in1022.0 mb 0.04 in1.0 mm 0.00 in0.0 mm 0.04 in1.0 mm
07:40 AM 12.4°F-10.9°C 8.5°F-13.1°C 84% Calm Calm 2.0 mph3.2 kmh 30.18 in1022.0 mb 0.04 in1.0 mm 0.00 in0.0 mm 0.04 in1.0 mm
07:45 AM 12.1°F-11.1°C 8.5°F-13.1°C 85% Calm Calm -- 30.18 in1022.0 mb 0.03 in0.8 mm 0.00 in0.0 mm 0.04 in1.0 mm
07:50 AM 11.9°F-11.2°C 8.3°F-13.2°C 85% Calm Calm -- 30.18 in1022.0 mb 0.03 in0.8 mm 0.00 in0.0 mm 0.04 in1.0 mm
07:55 AM 11.8°F-11.2°C 8.4°F-13.1°C 86% Calm Calm -- 30.18 in1022.0 mb 0.03 in0.8 mm 0.00 in0.0 mm 0.04 in1.0 mm
08:00 AM 11.7°F-11.3°C 8.3°F-13.2°C 86% Calm Calm -- 30.18 in1022.0 mb 0.01 in0.3 mm 0.00 in0.0 mm 0.04 in1.0 mm
08:05 AM 11.7°F-11.3°C 8.3°F-13.2°C 86% Calm Calm -- 30.18 in1022.0 mb 0.01 in0.3 mm 0.00 in0.0 mm 0.04 in1.0 mm
08:10 AM 11.8°F-11.2°C 8.4°F-13.1°C 86% Calm Calm -- 30.18 in1022.0 mb 0.02 in0.5 mm 0.12 in3.0 mm 0.05 in1.3 mm
08:15 AM 11.9°F-11.2°C 8.5°F-13.1°C 86% Calm Calm -- 30.18 in1022.0 mb 0.02 in0.5 mm 0.00 in0.0 mm 0.05 in1.3 mm
08:20 AM 12.1°F-11.1°C 8.7°F-12.9°C 86% Calm Calm -- 30.18 in1022.0 mb 0.02 in0.5 mm 0.00 in0.0 mm 0.05 in1.3 mm
08:25 AM 12.2°F-11.0°C 8.8°F-12.9°C 86% Calm Calm -- 30.17 in1021.7 mb 0.02 in0.5 mm 0.00 in0.0 mm 0.05 in1.3 mm
08:30 AM 12.4°F-10.9°C 9.0°F-12.8°C 86% Calm Calm -- 30.18 in1022.0 mb 0.02 in0.5 mm 0.00 in0.0 mm 0.05 in1.3 mm
08:35 AM 12.6°F-10.8°C 9.2°F-12.7°C 86% Calm Calm -- 30.18 in1022.0 mb 0.02 in0.5 mm 0.00 in0.0 mm 0.05 in1.3 mm
08:40 AM 12.6°F-10.8°C 9.2°F-12.7°C 86% Calm Calm -- 30.18 in1022.0 mb 0.02 in0.5 mm 0.00 in0.0 mm 0.05 in1.3 mm
08:45 AM 12.6°F-10.8°C 9.2°F-12.7°C 86% Calm Calm -- 30.18 in1022.0 mb 0.02 in0.5 mm 0.00 in0.0 mm 0.05 in1.3 mm
08:50 AM 12.5°F-10.8°C 9.1°F-12.7°C 86% Calm Calm -- 30.18 in1022.0 mb 0.02 in0.5 mm 0.00 in0.0 mm 0.05 in1.3 mm
08:55 AM 12.5°F-10.8°C 9.1°F-12.7°C 86% Calm Calm -- 30.18 in1022.0 mb 0.02 in0.5 mm 0.00 in0.0 mm 0.05 in1.3 mm
09:00 AM 12.5°F-10.8°C 9.1°F-12.7°C 86% Calm Calm -- 30.18 in1022.0 mb 0.03 in0.8 mm 0.01 in0.3 mm 0.06 in1.5 mm
09:05 AM 12.5°F-10.8°C 9.1°F-12.7°C 86% Calm Calm -- 30.19 in1022.4 mb 0.03 in0.8 mm 0.00 in0.0 mm 0.06 in1.5 mm
09:10 AM 12.6°F-10.8°C 9.5°F-12.5°C 87% Calm Calm -- 30.19 in1022.4 mb 0.03 in0.8 mm 0.00 in0.0 mm 0.06 in1.5 mm
09:15 AM 12.6°F-10.8°C 9.2°F-12.7°C 86% Calm Calm -- 30.19 in1022.4 mb 0.02 in0.5 mm 0.00 in0.0 mm 0.06 in1.5 mm
09:20 AM 12.6°F-10.8°C 9.2°F-12.7°C 86% Calm Calm -- 30.19 in1022.4 mb 0.02 in0.5 mm 0.00 in0.0 mm 0.06 in1.5 mm
09:25 AM 12.6°F-10.8°C 9.5°F-12.5°C 87% Calm Calm -- 30.19 in1022.4 mb 0.02 in0.5 mm 0.00 in0.0 mm 0.06 in1.5 mm
09:30 AM 12.6°F-10.8°C 9.5°F-12.5°C 87% Calm Calm -- 30.19 in1022.4 mb 0.01 in0.3 mm 0.00 in0.0 mm 0.06 in1.5 mm
09:35 AM 12.7°F-10.7°C 9.6°F-12.4°C 87% Calm Calm -- 30.19 in1022.4 mb 0.01 in0.3 mm 0.00 in0.0 mm 0.06 in1.5 mm
09:40 AM 12.8°F-10.7°C 9.7°F-12.4°C 87% Calm Calm -- 30.20 in1022.7 mb 0.01 in0.3 mm 0.00 in0.0 mm 0.06 in1.5 mm
09:45 AM 13.2°F-10.4°C 10.1°F-12.2°C 87% Calm Calm -- 30.20 in1022.7 mb 0.01 in0.3 mm 0.00 in0.0 mm 0.06 in1.5 mm
09:50 AM 13.4°F-10.3°C 10.3°F-12.1°C 87% Calm Calm -- 30.19 in1022.4 mb 0.02 in0.5 mm 0.12 in3.0 mm 0.07 in1.8 mm
09:55 AM 13.7°F-10.2°C 10.6°F-11.9°C 87% Calm Calm -- 30.19 in1022.4 mb 0.02 in0.5 mm 0.00 in0.0 mm 0.07 in1.8 mm
10:00 AM 13.6°F-10.2°C 10.2°F-12.1°C 86% Calm Calm -- 30.20 in1022.7 mb 0.01 in0.3 mm 0.00 in0.0 mm 0.07 in1.8 mm
10:05 AM 13.6°F-10.2°C 10.2°F-12.1°C 86% Calm Calm -- 30.20 in1022.7 mb 0.01 in0.3 mm 0.00 in0.0 mm 0.07 in1.8 mm
10:10 AM 13.7°F-10.2°C 10.3°F-12.1°C 86% Calm Calm -- 30.21 in1023.0 mb 0.01 in0.3 mm 0.00 in0.0 mm 0.07 in1.8 mm
10:15 AM 13.7°F-10.2°C 10.3°F-12.1°C 86% Calm Calm -- 30.20 in1022.7 mb 0.01 in0.3 mm 0.00 in0.0 mm 0.07 in1.8 mm
10:20 AM 13.8°F-10.1°C 10.4°F-12.0°C 86% Calm Calm -- 30.20 in1022.7 mb 0.01 in0.3 mm 0.00 in0.0 mm 0.07 in1.8 mm
10:25 AM 13.9°F-10.1°C 10.5°F-11.9°C 86% Calm Calm -- 30.21 in1023.0 mb 0.01 in0.3 mm 0.00 in0.0 mm 0.07 in1.8 mm
10:30 AM 14.3°F-9.8°C 10.9°F-11.7°C 86% Calm Calm -- 30.21 in1023.0 mb 0.01 in0.3 mm 0.00 in0.0 mm 0.07 in1.8 mm
10:35 AM 14.5°F-9.7°C 10.8°F-11.8°C 85% Calm Calm -- 30.21 in1023.0 mb 0.02 in0.5 mm 0.12 in3.0 mm 0.08 in2.0 mm
10:40 AM 14.9°F-9.5°C 11.5°F-11.4°C 86% Calm Calm -- 30.20 in1022.7 mb 0.02 in0.5 mm 0.00 in0.0 mm 0.08 in2.0 mm
10:45 AM 15.2°F-9.3°C 11.5°F-11.4°C 85% Calm Calm -- 30.21 in1023.0 mb 0.02 in0.5 mm 0.00 in0.0 mm 0.08 in2.0 mm
10:50 AM 15.3°F-9.3°C 11.3°F-11.5°C 84% Calm Calm -- 30.20 in1022.7 mb 0.02 in0.5 mm 0.00 in0.0 mm 0.08 in2.0 mm
10:55 AM 15.3°F-9.3°C 11.3°F-11.5°C 84% Calm Calm -- 30.21 in1023.0 mb 0.02 in0.5 mm 0.00 in0.0 mm 0.08 in2.0 mm
11:00 AM 15.3°F-9.3°C 11.3°F-11.5°C 84% Calm Calm -- 30.21 in1023.0 mb 0.01 in0.3 mm 0.00 in0.0 mm 0.08 in2.0 mm
11:05 AM 15.4°F-9.2°C 11.4°F-11.4°C 84% Calm Calm -- 30.21 in1023.0 mb 0.01 in0.3 mm 0.00 in0.0 mm 0.08 in2.0 mm
11:10 AM 15.4°F-9.2°C 11.4°F-11.4°C 84% Calm Calm -- 30.22 in1023.4 mb 0.01 in0.3 mm 0.00 in0.0 mm 0.08 in2.0 mm
11:15 AM 15.6°F-9.1°C 11.6°F-11.3°C 84% Calm Calm -- 30.22 in1023.4 mb 0.01 in0.3 mm 0.00 in0.0 mm 0.08 in2.0 mm
11:20 AM 15.5°F-9.2°C 11.5°F-11.4°C 84% Calm Calm -- 30.22 in1023.4 mb 0.01 in0.3 mm 0.00 in0.0 mm 0.08 in2.0 mm
11:25 AM 15.6°F-9.1°C 11.9°F-11.2°C 85% Calm Calm -- 30.22 in1023.4 mb 0.01 in0.3 mm 0.00 in0.0 mm 0.08 in2.0 mm
11:30 AM 15.7°F-9.1°C 11.7°F-11.3°C 84% Calm Calm -- 30.23 in1023.7 mb 0.01 in0.3 mm 0.00 in0.0 mm 0.08 in2.0 mm
11:35 AM 15.7°F-9.1°C 12.0°F-11.1°C 85% Calm Calm -- 30.23 in1023.7 mb 0.01 in0.3 mm 0.00 in0.0 mm 0.08 in2.0 mm
11:40 AM 15.8°F-9.0°C 12.1°F-11.1°C 85% Calm Calm -- 30.23 in1023.7 mb 0.02 in0.5 mm 0.12 in3.0 mm 0.09 in2.3 mm
11:45 AM 15.9°F-8.9°C 12.2°F-11.0°C 85% 6.0 mph N9.7 kmh N 6.0 mph9.7 kmh 30.23 in1023.7 mb 0.01 in0.3 mm 0.00 in0.0 mm 0.09 in2.3 mm
11:50 AM 16.0°F-8.9°C 12.3°F-10.9°C 85% 2.0 mph N3.2 kmh N 6.0 mph9.7 kmh 30.23 in1023.7 mb 0.01 in0.3 mm 0.00 in0.0 mm 0.09 in2.3 mm
11:55 AM 15.9°F-8.9°C 12.2°F-11.0°C 85% 6.0 mph N9.7 kmh N 6.0 mph9.7 kmh 30.23 in1023.7 mb 0.01 in0.3 mm 0.00 in0.0 mm 0.09 in2.3 mm
12:00 PM 15.9°F-8.9°C 11.9°F-11.2°C 84% 5.0 mph N8.0 kmh N 5.0 mph8.0 kmh 30.24 in1024.0 mb 0.01 in0.3 mm 0.00 in0.0 mm 0.09 in2.3 mm
12:05 PM 16.0°F-8.9°C 12.3°F-10.9°C 85% 4.0 mph N6.4 kmh N 6.0 mph9.7 kmh 30.24 in1024.0 mb 0.01 in0.3 mm 0.00 in0.0 mm 0.09 in2.3 mm
12:10 PM 16.0°F-8.9°C 12.0°F-11.1°C 84% 3.0 mph N4.8 kmh N 7.0 mph11.3 kmh 30.25 in1024.4 mb 0.01 in0.3 mm 0.00 in0.0 mm 0.09 in2.3 mm
12:15 PM 15.9°F-8.9°C 11.9°F-11.2°C 84% 3.0 mph N4.8 kmh N 3.0 mph4.8 kmh 30.25 in1024.4 mb 0.01 in0.3 mm 0.00 in0.0 mm 0.09 in2.3 mm
12:20 PM 16.0°F-8.9°C 12.3°F-10.9°C 85% 4.0 mph N6.4 kmh N 8.0 mph12.9 kmh 30.25 in1024.4 mb 0.01 in0.3 mm 0.00 in0.0 mm 0.09 in2.3 mm
12:25 PM 16.1°F-8.8°C 12.4°F-10.9°C 85% 6.0 mph N9.7 kmh N 8.0 mph12.9 kmh 30.25 in1024.4 mb 0.01 in0.3 mm 0.00 in0.0 mm 0.09 in2.3 mm
12:30 PM 16.0°F-8.9°C 12.0°F-11.1°C 84% 7.0 mph N11.3 kmh N 7.0 mph11.3 kmh 30.25 in1024.4 mb 0.01 in0.3 mm 0.00 in0.0 mm 0.09 in2.3 mm
12:35 PM 16.1°F-8.8°C 12.4°F-10.9°C 85% 6.0 mph N9.7 kmh N 8.0 mph12.9 kmh 30.25 in1024.4 mb 0.01 in0.3 mm 0.00 in0.0 mm 0.09 in2.3 mm
12:40 PM 16.1°F-8.8°C 12.4°F-10.9°C 85% 3.0 mph N4.8 kmh N 9.0 mph14.5 kmh 30.26 in1024.7 mb 0.01 in0.3 mm 0.00 in0.0 mm 0.09 in2.3 mm
12:45 PM 16.2°F-8.8°C 12.8°F-10.7°C 86% 4.0 mph N6.4 kmh N 8.0 mph12.9 kmh 30.26 in1024.7 mb 0.00 in0.0 mm 0.00 in0.0 mm 0.09 in2.3 mm
12:50 PM 16.1°F-8.8°C 12.4°F-10.9°C 85% 3.0 mph N4.8 kmh N 12.0 mph19.3 kmh 30.26 in1024.7 mb 0.00 in0.0 mm 0.00 in0.0 mm 0.09 in2.3 mm
12:55 PM 16.1°F-8.8°C 12.4°F-10.9°C 85% 4.0 mph N6.4 kmh N 12.0 mph19.3 kmh 30.26 in1024.7 mb 0.00 in0.0 mm 0.00 in0.0 mm 0.09 in2.3 mm
01:00 PM 16.2°F-8.8°C 12.8°F-10.7°C 86% 2.0 mph N3.2 kmh N 3.0 mph4.8 kmh 30.26 in1024.7 mb 0.00 in0.0 mm 0.00 in0.0 mm 0.09 in2.3 mm
01:05 PM 16.4°F-8.7°C 12.7°F-10.7°C 85% 4.0 mph N6.4 kmh N 12.0 mph19.3 kmh 30.26 in1024.7 mb 0.00 in0.0 mm 0.00 in0.0 mm 0.09 in2.3 mm
01:10 PM 16.2°F-8.8°C 12.2°F-11.0°C 84% 7.0 mph N11.3 kmh N 12.0 mph19.3 kmh 30.26 in1024.7 mb 0.00 in0.0 mm 0.00 in0.0 mm 0.09 in2.3 mm
01:15 PM 16.2°F-8.8°C 12.2°F-11.0°C 84% 8.0 mph N12.9 kmh N 8.0 mph12.9 kmh 30.27 in1025.1 mb 0.00 in0.0 mm 0.00 in0.0 mm 0.09 in2.3 mm
01:20 PM 15.8°F-9.0°C 11.6°F-11.3°C 83% 2.0 mph N3.2 kmh N 13.0 mph20.9 kmh 30.27 in1025.1 mb 0.00 in0.0 mm 0.00 in0.0 mm 0.09 in2.3 mm
01:25 PM 15.7°F-9.1°C 11.7°F-11.3°C 84% 11.0 mph N17.7 kmh N 13.0 mph20.9 kmh 30.27 in1025.1 mb 0.00 in0.0 mm 0.00 in0.0 mm 0.09 in2.3 mm
01:30 PM 15.3°F-9.3°C 11.1°F-11.6°C 83% 8.0 mph N12.9 kmh N 8.0 mph12.9 kmh 30.27 in1025.1 mb 0.00 in0.0 mm 0.00 in0.0 mm 0.09 in2.3 mm
01:35 PM 15.4°F-9.2°C 11.4°F-11.4°C 84% 6.0 mph N9.7 kmh N 12.0 mph19.3 kmh 30.27 in1025.1 mb 0.00 in0.0 mm 0.00 in0.0 mm 0.09 in2.3 mm
01:40 PM 15.4°F-9.2°C 11.4°F-11.4°C 84% 7.0 mph N11.3 kmh N 12.0 mph19.3 kmh 30.27 in1025.1 mb 0.00 in0.0 mm 0.00 in0.0 mm 0.09 in2.3 mm
01:45 PM 15.4°F-9.2°C 11.4°F-11.4°C 84% 4.0 mph N6.4 kmh N 5.0 mph8.0 kmh 30.27 in1025.1 mb 0.00 in0.0 mm 0.00 in0.0 mm 0.09 in2.3 mm
01:50 PM 15.4°F-9.2°C 11.4°F-11.4°C 84% 6.0 mph N9.7 kmh N 10.0 mph16.1 kmh 30.27 in1025.1 mb 0.00 in0.0 mm 0.00 in0.0 mm 0.09 in2.3 mm
01:55 PM 15.2°F-9.3°C 10.7°F-11.8°C 82% 9.0 mph N14.5 kmh N 13.0 mph20.9 kmh 30.27 in1025.1 mb 0.00 in0.0 mm 0.00 in0.0 mm 0.09 in2.3 mm
02:00 PM 14.7°F-9.6°C 10.5°F-11.9°C 83% 5.0 mph N8.0 kmh N 10.0 mph16.1 kmh 30.27 in1025.1 mb 0.00 in0.0 mm 0.00 in0.0 mm 0.09 in2.3 mm
02:05 PM 14.7°F-9.6°C 10.8°F-11.8°C 84% 8.0 mph N12.9 kmh N 12.0 mph19.3 kmh 30.27 in1025.1 mb 0.00 in0.0 mm 0.00 in0.0 mm 0.09 in2.3 mm
02:10 PM 14.7°F-9.6°C 10.5°F-11.9°C 83% 7.0 mph N11.3 kmh N 12.0 mph19.3 kmh 30.27 in1025.1 mb 0.00 in0.0 mm 0.00 in0.0 mm 0.09 in2.3 mm
02:15 PM 15.0°F-9.4°C 11.1°F-11.6°C 84% 9.0 mph N14.5 kmh N 9.0 mph14.5 kmh 30.27 in1025.1 mb 0.00 in0.0 mm 0.00 in0.0 mm 0.09 in2.3 mm
02:20 PM 15.0°F-9.4°C 10.8°F-11.8°C 83% 7.0 mph N11.3 kmh N 13.0 mph20.9 kmh 30.27 in1025.1 mb 0.00 in0.0 mm 0.00 in0.0 mm 0.09 in2.3 mm
02:25 PM 15.1°F-9.4°C 10.9°F-11.7°C 83% 9.0 mph N14.5 kmh N 13.0 mph20.9 kmh 30.27 in1025.1 mb 0.00 in0.0 mm 0.00 in0.0 mm 0.09 in2.3 mm
02:30 PM 14.6°F-9.7°C 10.1°F-12.2°C 82% 12.0 mph N19.3 kmh N 12.0 mph19.3 kmh 30.28 in1025.4 mb 0.00 in0.0 mm 0.00 in0.0 mm 0.09 in2.3 mm
02:35 PM 14.4°F-9.8°C 10.2°F-12.1°C 83% 9.0 mph N14.5 kmh N 12.0 mph19.3 kmh 30.28 in1025.4 mb 0.00 in0.0 mm 0.00 in0.0 mm 0.09 in2.3 mm
02:40 PM 14.6°F-9.7°C 10.7°F-11.8°C 84% 5.0 mph N8.0 kmh N 12.0 mph19.3 kmh 30.28 in1025.4 mb 0.00 in0.0 mm 0.00 in0.0 mm 0.09 in2.3 mm
02:45 PM 14.7°F-9.6°C 10.5°F-11.9°C 83% 8.0 mph N12.9 kmh N 13.0 mph20.9 kmh 30.28 in1025.4 mb 0.00 in0.0 mm 0.00 in0.0 mm 0.09 in2.3 mm
02:50 PM 14.4°F-9.8°C 9.9°F-12.3°C 82% 6.0 mph N9.7 kmh N 13.0 mph20.9 kmh 30.28 in1025.4 mb 0.00 in0.0 mm 0.00 in0.0 mm 0.09 in2.3 mm
02:55 PM 14.1°F-9.9°C 9.9°F-12.3°C 83% 10.0 mph N16.1 kmh N 14.0 mph22.5 kmh 30.28 in1025.4 mb 0.00 in0.0 mm 0.00 in0.0 mm 0.09 in2.3 mm
03:00 PM 14.0°F-10.0°C 9.8°F-12.3°C 83% 8.0 mph N12.9 kmh N 10.0 mph16.1 kmh 30.28 in1025.4 mb 0.00 in0.0 mm 0.00 in0.0 mm 0.09 in2.3 mm
03:04 PM 14.1°F-9.9°C 10.2°F-12.1°C 84% 2.0 mph N3.2 kmh N 13.0 mph20.9 kmh 30.28 in1025.4 mb 0.00 in0.0 mm 0.00 in0.0 mm 0.09 in2.3 mm
03:05 PM 14.2°F-9.9°C 10.5°F-11.9°C 85% 3.0 mph N4.8 kmh N 13.0 mph20.9 kmh 30.28 in1025.4 mb 0.00 in0.0 mm 0.00 in0.0 mm 0.09 in2.3 mm
03:10 PM 14.6°F-9.7°C 10.7°F-11.8°C 84% 5.0 mph N8.0 kmh N 13.0 mph20.9 kmh 30.28 in1025.4 mb 0.00 in0.0 mm 0.00 in0.0 mm 0.09 in2.3 mm
03:15 PM 15.0°F-9.4°C 10.8°F-11.8°C 83% 8.0 mph N12.9 kmh N 11.0 mph17.7 kmh 30.28 in1025.4 mb 0.00 in0.0 mm 0.00 in0.0 mm 0.09 in2.3 mm
03:20 PM 15.0°F-9.4°C 10.8°F-11.8°C 83% 8.0 mph N12.9 kmh N 11.0 mph17.7 kmh 30.28 in1025.4 mb 0.00 in0.0 mm 0.00 in0.0 mm 0.09 in2.3 mm
03:25 PM 15.2°F-9.3°C 11.0°F-11.7°C 83% 6.0 mph N9.7 kmh N 11.0 mph17.7 kmh 30.28 in1025.4 mb 0.00 in0.0 mm 0.00 in0.0 mm 0.09 in2.3 mm
03:30 PM 15.4°F-9.2°C 11.2°F-11.6°C 83% 4.0 mph N6.4 kmh N 8.0 mph12.9 kmh 30.28 in1025.4 mb 0.00 in0.0 mm 0.00 in0.0 mm 0.09 in2.3 mm
03:35 PM 15.3°F-9.3°C 10.8°F-11.8°C 82% 4.0 mph N6.4 kmh N 10.0 mph16.1 kmh 30.29 in1025.7 mb 0.00 in0.0 mm 0.00 in0.0 mm 0.09 in2.3 mm
03:40 PM 15.5°F-9.2°C 11.3°F-11.5°C 83% 4.0 mph N6.4 kmh N 11.0 mph17.7 kmh 30.29 in1025.7 mb 0.00 in0.0 mm 0.00 in0.0 mm 0.09 in2.3 mm
03:45 PM 15.6°F-9.1°C 11.1°F-11.6°C 82% 6.0 mph N9.7 kmh N 9.0 mph14.5 kmh 30.29 in1025.7 mb 0.00 in0.0 mm 0.00 in0.0 mm 0.09 in2.3 mm
03:50 PM 15.7°F-9.1°C 11.2°F-11.6°C 82% 7.0 mph N11.3 kmh N 9.0 mph14.5 kmh 30.29 in1025.7 mb 0.00 in0.0 mm 0.00 in0.0 mm 0.09 in2.3 mm
03:55 PM 15.6°F-9.1°C 11.1°F-11.6°C 82% 3.0 mph N4.8 kmh N 11.0 mph17.7 kmh 30.29 in1025.7 mb 0.00 in0.0 mm 0.00 in0.0 mm 0.09 in2.3 mm
04:00 PM 15.3°F-9.3°C 10.8°F-11.8°C 82% 6.0 mph N9.7 kmh N 6.0 mph9.7 kmh 30.29 in1025.7 mb 0.00 in0.0 mm 0.00 in0.0 mm 0.09 in2.3 mm
04:05 PM 15.1°F-9.4°C 10.6°F-11.9°C 82% 7.0 mph N11.3 kmh N 10.0 mph16.1 kmh 30.29 in1025.7 mb 0.00 in0.0 mm 0.00 in0.0 mm 0.09 in2.3 mm
04:10 PM 14.9°F-9.5°C 10.4°F-12.0°C 82% 5.0 mph N8.0 kmh N 10.0 mph16.1 kmh 30.30 in1026.1 mb 0.00 in0.0 mm 0.00 in0.0 mm 0.09 in2.3 mm
04:15 PM 14.9°F-9.5°C 10.4°F-12.0°C 82% 2.0 mph N3.2 kmh N 4.0 mph6.4 kmh 30.30 in1026.1 mb 0.00 in0.0 mm 0.00 in0.0 mm 0.09 in2.3 mm
04:20 PM 15.0°F-9.4°C 10.5°F-11.9°C 82% 7.0 mph N11.3 kmh N 9.0 mph14.5 kmh 30.30 in1026.1 mb 0.00 in0.0 mm 0.00 in0.0 mm 0.09 in2.3 mm
04:25 PM 15.0°F-9.4°C 10.2°F-12.1°C 81% 3.0 mph N4.8 kmh N 9.0 mph14.5 kmh 30.31 in1026.4 mb 0.00 in0.0 mm 0.00 in0.0 mm 0.09 in2.3 mm
04:30 PM 15.0°F-9.4°C 10.2°F-12.1°C 81% 6.0 mph N9.7 kmh N 8.0 mph12.9 kmh 30.31 in1026.4 mb 0.00 in0.0 mm 0.00 in0.0 mm 0.09 in2.3 mm
04:35 PM 14.9°F-9.5°C 10.1°F-12.2°C 81% 5.0 mph N8.0 kmh N 11.0 mph17.7 kmh 30.31 in1026.4 mb 0.00 in0.0 mm 0.00 in0.0 mm 0.09 in2.3 mm
04:40 PM 14.9°F-9.5°C 10.4°F-12.0°C 82% 4.0 mph N6.4 kmh N 11.0 mph17.7 kmh 30.31 in1026.4 mb 0.00 in0.0 mm 0.00 in0.0 mm 0.09 in2.3 mm
04:45 PM 15.0°F-9.4°C 10.2°F-12.1°C 81% 9.0 mph N14.5 kmh N 10.0 mph16.1 kmh 30.31 in1026.4 mb 0.00 in0.0 mm 0.00 in0.0 mm 0.09 in2.3 mm
04:50 PM 15.0°F-9.4°C 10.2°F-12.1°C 81% 3.0 mph N4.8 kmh N 10.0 mph16.1 kmh 30.32 in1026.8 mb 0.00 in0.0 mm 0.00 in0.0 mm 0.09 in2.3 mm
04:55 PM 15.0°F-9.4°C 10.2°F-12.1°C 81% 8.0 mph N12.9 kmh N 12.0 mph19.3 kmh 30.32 in1026.8 mb 0.00 in0.0 mm 0.00 in0.0 mm 0.09 in2.3 mm
05:00 PM 14.9°F-9.5°C 10.1°F-12.2°C 81% 7.0 mph N11.3 kmh N 8.0 mph12.9 kmh 30.32 in1026.8 mb 0.00 in0.0 mm 0.00 in0.0 mm 0.09 in2.3 mm
05:05 PM 14.9°F-9.5°C 9.9°F-12.3°C 80% 6.0 mph N9.7 kmh N 10.0 mph16.1 kmh 30.32 in1026.8 mb 0.00 in0.0 mm 0.00 in0.0 mm 0.09 in2.3 mm
05:10 PM 14.8°F-9.6°C 9.8°F-12.3°C 80% 6.0 mph N9.7 kmh N 10.0 mph16.1 kmh 30.32 in1026.8 mb 0.00 in0.0 mm 0.00 in0.0 mm 0.09 in2.3 mm
05:15 PM 14.8°F-9.6°C 9.8°F-12.3°C 80% 5.0 mph N8.0 kmh N 7.0 mph11.3 kmh 30.33 in1027.1 mb 0.00 in0.0 mm 0.00 in0.0 mm 0.09 in2.3 mm
05:20 PM 14.6°F-9.7°C 9.6°F-12.4°C 80% 5.0 mph N8.0 kmh N 9.0 mph14.5 kmh 30.33 in1027.1 mb 0.00 in0.0 mm 0.00 in0.0 mm 0.09 in2.3 mm
05:25 PM 14.5°F-9.7°C 9.5°F-12.5°C 80% 5.0 mph N8.0 kmh N 9.0 mph14.5 kmh 30.33 in1027.1 mb 0.00 in0.0 mm 0.00 in0.0 mm 0.09 in2.3 mm
05:30 PM 14.4°F-9.8°C 9.4°F-12.6°C 80% 7.0 mph N11.3 kmh N 8.0 mph12.9 kmh 30.33 in1027.1 mb 0.00 in0.0 mm 0.00 in0.0 mm 0.09 in2.3 mm
05:35 PM 14.2°F-9.9°C 8.9°F-12.8°C 79% 5.0 mph N8.0 kmh N 12.0 mph19.3 kmh 30.33 in1027.1 mb 0.00 in0.0 mm 0.00 in0.0 mm 0.09 in2.3 mm
05:40 PM 14.2°F-9.9°C 8.9°F-12.8°C 79% 6.0 mph N9.7 kmh N 12.0 mph19.3 kmh 30.33 in1027.1 mb 0.00 in0.0 mm 0.00 in0.0 mm 0.09 in2.3 mm
05:45 PM 14.1°F-9.9°C 8.8°F-12.9°C 79% 3.0 mph N4.8 kmh N 10.0 mph16.1 kmh 30.33 in1027.1 mb 0.00 in0.0 mm 0.00 in0.0 mm 0.09 in2.3 mm
05:50 PM 14.0°F-10.0°C 8.7°F-12.9°C 79% 4.0 mph N6.4 kmh N 10.0 mph16.1 kmh 30.34 in1027.4 mb 0.00 in0.0 mm 0.00 in0.0 mm 0.09 in2.3 mm
05:55 PM 13.7°F-10.2°C 8.4°F-13.1°C 79% 3.0 mph N4.8 kmh N 10.0 mph16.1 kmh 30.34 in1027.4 mb 0.00 in0.0 mm 0.00 in0.0 mm 0.09 in2.3 mm
06:00 PM 13.4°F-10.3°C 8.1°F-13.3°C 79% 3.0 mph N4.8 kmh N 5.0 mph8.0 kmh 30.34 in1027.4 mb 0.00 in0.0 mm 0.00 in0.0 mm 0.09 in2.3 mm
06:05 PM 13.3°F-10.4°C 8.0°F-13.3°C 79% 3.0 mph N4.8 kmh N 8.0 mph12.9 kmh 30.34 in1027.4 mb 0.00 in0.0 mm 0.00 in0.0 mm 0.09 in2.3 mm
06:10 PM 13.2°F-10.4°C 7.9°F-13.4°C 79% 3.0 mph N4.8 kmh N 8.0 mph12.9 kmh 30.35 in1027.8 mb 0.00 in0.0 mm 0.00 in0.0 mm 0.09 in2.3 mm
06:15 PM 12.9°F-10.6°C 7.6°F-13.6°C 79% 4.0 mph N6.4 kmh N 5.0 mph8.0 kmh 30.35 in1027.8 mb 0.00 in0.0 mm 0.00 in0.0 mm 0.09 in2.3 mm
06:20 PM 12.5°F-10.8°C 7.2°F-13.8°C 79% 3.0 mph N4.8 kmh N 8.0 mph12.9 kmh 30.36 in1028.1 mb 0.00 in0.0 mm 0.00 in0.0 mm 0.09 in2.3 mm
06:25 PM 12.3°F-10.9°C 7.0°F-13.9°C 79% 5.0 mph N8.0 kmh N 8.0 mph12.9 kmh 30.36 in1028.1 mb 0.00 in0.0 mm 0.00 in0.0 mm 0.09 in2.3 mm
06:30 PM 12.1°F-11.1°C 6.9°F-13.9°C 79% 5.0 mph N8.0 kmh N 7.0 mph11.3 kmh 30.37 in1028.4 mb 0.00 in0.0 mm 0.00 in0.0 mm 0.09 in2.3 mm
06:35 PM 11.8°F-11.2°C 6.6°F-14.1°C 79% 5.0 mph N8.0 kmh N 7.0 mph11.3 kmh 30.37 in1028.4 mb 0.00 in0.0 mm 0.00 in0.0 mm 0.09 in2.3 mm
06:40 PM 11.3°F-11.5°C 6.1°F-14.4°C 79% 4.0 mph N6.4 kmh N 8.0 mph12.9 kmh 30.37 in1028.4 mb 0.00 in0.0 mm 0.00 in0.0 mm 0.09 in2.3 mm
06:45 PM 10.7°F-11.8°C 5.5°F-14.7°C 79% 5.0 mph N8.0 kmh N 8.0 mph12.9 kmh 30.37 in1028.4 mb 0.00 in0.0 mm 0.00 in0.0 mm 0.09 in2.3 mm
06:50 PM 10.1°F-12.2°C 5.2°F-14.9°C 80% 4.0 mph N6.4 kmh N 8.0 mph12.9 kmh 30.37 in1028.4 mb 0.00 in0.0 mm 0.00 in0.0 mm 0.09 in2.3 mm
06:55 PM 9.8°F-12.3°C 5.2°F-14.9°C 81% 3.0 mph N4.8 kmh N 8.0 mph12.9 kmh 30.38 in1028.8 mb 0.00 in0.0 mm 0.00 in0.0 mm 0.09 in2.3 mm
07:00 PM 9.4°F-12.6°C 4.8°F-15.1°C 81% 6.0 mph N9.7 kmh N 6.0 mph9.7 kmh 30.38 in1028.8 mb 0.00 in0.0 mm 0.00 in0.0 mm 0.09 in2.3 mm
07:05 PM 9.0°F-12.8°C 4.4°F-15.3°C 81% 4.0 mph N6.4 kmh N 6.0 mph9.7 kmh 30.38 in1028.8 mb 0.00 in0.0 mm 0.00 in0.0 mm 0.09 in2.3 mm
07:10 PM 8.7°F-12.9°C 4.1°F-15.5°C 81% 5.0 mph N8.0 kmh N 6.0 mph9.7 kmh 30.39 in1029.1 mb 0.00 in0.0 mm 0.00 in0.0 mm 0.09 in2.3 mm
07:15 PM 8.3°F-13.2°C 4.0°F-15.6°C 82% 5.0 mph N8.0 kmh N 5.0 mph8.0 kmh 30.39 in1029.1 mb 0.00 in0.0 mm 0.00 in0.0 mm 0.09 in2.3 mm
07:20 PM 7.8°F-13.4°C 3.5°F-15.8°C 82% 3.0 mph N4.8 kmh N 6.0 mph9.7 kmh 30.39 in1029.1 mb 0.00 in0.0 mm 0.00 in0.0 mm 0.09 in2.3 mm
07:25 PM 7.4°F-13.7°C 3.1°F-16.1°C 82% 3.0 mph N4.8 kmh N 6.0 mph9.7 kmh 30.39 in1029.1 mb 0.00 in0.0 mm 0.00 in0.0 mm 0.09 in2.3 mm
07:30 PM 6.8°F-14.0°C 2.5°F-16.4°C 82% 3.0 mph N4.8 kmh N 4.0 mph6.4 kmh 30.39 in1029.1 mb 0.00 in0.0 mm 0.00 in0.0 mm 0.09 in2.3 mm
07:35 PM 6.3°F-14.3°C 2.3°F-16.5°C 83% 4.0 mph N6.4 kmh N 5.0 mph8.0 kmh 30.40 in1029.5 mb 0.00 in0.0 mm 0.00 in0.0 mm 0.09 in2.3 mm
07:40 PM 5.8°F-14.6°C 1.8°F-16.8°C 83% 3.0 mph N4.8 kmh N 6.0 mph9.7 kmh 30.40 in1029.5 mb 0.00 in0.0 mm 0.00 in0.0 mm 0.09 in2.3 mm
07:45 PM 5.3°F-14.8°C 1.3°F-17.1°C 83% 4.0 mph N6.4 kmh N 5.0 mph8.0 kmh 30.40 in1029.5 mb 0.00 in0.0 mm 0.00 in0.0 mm 0.09 in2.3 mm
07:50 PM 4.9°F-15.1°C 1.1°F-17.2°C 84% 2.0 mph N3.2 kmh N 8.0 mph12.9 kmh 30.41 in1029.8 mb 0.00 in0.0 mm 0.00 in0.0 mm 0.09 in2.3 mm
07:55 PM 4.2°F-15.4°C 0.2°F-17.7°C 83% 4.0 mph N6.4 kmh N 8.0 mph12.9 kmh 30.41 in1029.8 mb 0.00 in0.0 mm 0.00 in0.0 mm 0.09 in2.3 mm
08:00 PM 3.7°F-15.7°C -0.3°F-17.9°C 83% 2.0 mph N3.2 kmh N 6.0 mph9.7 kmh 30.42 in1030.1 mb 0.00 in0.0 mm 0.00 in0.0 mm 0.09 in2.3 mm
08:05 PM 3.6°F-15.8°C 0.1°F-17.7°C 85% 3.0 mph N4.8 kmh N 8.0 mph12.9 kmh 30.42 in1030.1 mb 0.00 in0.0 mm 0.00 in0.0 mm 0.09 in2.3 mm
08:10 PM 3.6°F-15.8°C 0.4°F-17.6°C 86% 4.0 mph N6.4 kmh N 8.0 mph12.9 kmh 30.42 in1030.1 mb 0.00 in0.0 mm 0.00 in0.0 mm 0.09 in2.3 mm
08:15 PM 3.8°F-15.7°C 0.6°F-17.4°C 86% 2.0 mph N3.2 kmh N 3.0 mph4.8 kmh 30.42 in1030.1 mb 0.00 in0.0 mm 0.00 in0.0 mm 0.09 in2.3 mm
08:20 PM 3.6°F-15.8°C 0.1°F-17.7°C 85% 4.0 mph N6.4 kmh N 5.0 mph8.0 kmh 30.42 in1030.1 mb 0.00 in0.0 mm 0.00 in0.0 mm 0.09 in2.3 mm
08:25 PM 3.4°F-15.9°C -0.1°F-17.8°C 85% 4.0 mph N6.4 kmh N 6.0 mph9.7 kmh 30.43 in1030.5 mb 0.00 in0.0 mm 0.00 in0.0 mm 0.09 in2.3 mm
08:30 PM 3.1°F-16.1°C -0.4°F-18.0°C 85% 2.0 mph N3.2 kmh N 4.0 mph6.4 kmh 30.42 in1030.1 mb 0.00 in0.0 mm 0.00 in0.0 mm 0.09 in2.3 mm
08:35 PM 2.6°F-16.3°C -1.1°F-18.4°C 84% 4.0 mph N6.4 kmh N 6.0 mph9.7 kmh 30.43 in1030.5 mb 0.00 in0.0 mm 0.00 in0.0 mm 0.09 in2.3 mm
08:40 PM 2.2°F-16.6°C -1.3°F-18.5°C 85% 6.0 mph N9.7 kmh N 7.0 mph11.3 kmh 30.43 in1030.5 mb 0.00 in0.0 mm 0.00 in0.0 mm 0.09 in2.3 mm
08:45 PM 2.0°F-16.7°C -1.5°F-18.6°C 85% 3.0 mph N4.8 kmh N 5.0 mph8.0 kmh 30.43 in1030.5 mb 0.00 in0.0 mm 0.00 in0.0 mm 0.09 in2.3 mm
08:50 PM 1.7°F-16.8°C -1.8°F-18.8°C 85% 5.0 mph N8.0 kmh N 5.0 mph8.0 kmh 30.44 in1030.8 mb 0.00 in0.0 mm 0.00 in0.0 mm 0.09 in2.3 mm
08:55 PM 1.6°F-16.9°C -1.9°F-18.8°C 85% 2.0 mph N3.2 kmh N 5.0 mph8.0 kmh 30.43 in1030.5 mb 0.00 in0.0 mm 0.00 in0.0 mm 0.09 in2.3 mm
09:00 PM 1.2°F-17.1°C -2.3°F-19.1°C 85% 3.0 mph N4.8 kmh N 4.0 mph6.4 kmh 30.44 in1030.8 mb 0.00 in0.0 mm 0.00 in0.0 mm 0.09 in2.3 mm
09:05 PM 0.8°F-17.3°C -2.9°F-19.4°C 84% 3.0 mph N4.8 kmh N 4.0 mph6.4 kmh 30.44 in1030.8 mb 0.00 in0.0 mm 0.00 in0.0 mm 0.09 in2.3 mm
09:10 PM 0.6°F-17.4°C -2.8°F-19.3°C 85% 2.0 mph N3.2 kmh N 4.0 mph6.4 kmh 30.44 in1030.8 mb 0.00 in0.0 mm 0.00 in0.0 mm 0.09 in2.3 mm
09:15 PM 0.1°F-17.7°C -3.7°F-19.8°C 84% 2.0 mph N3.2 kmh N 3.0 mph4.8 kmh 30.44 in1030.8 mb 0.00 in0.0 mm 0.00 in0.0 mm 0.09 in2.3 mm
09:20 PM -0.7°F-18.2°C -4.6°F-20.3°C 83% 3.0 mph N4.8 kmh N 4.0 mph6.4 kmh 30.44 in1030.8 mb 0.00 in0.0 mm 0.00 in0.0 mm 0.09 in2.3 mm
09:25 PM -1.3°F-18.5°C -5.2°F-20.7°C 83% 3.0 mph N4.8 kmh N 6.0 mph9.7 kmh 30.45 in1031.2 mb 0.00 in0.0 mm 0.00 in0.0 mm 0.09 in2.3 mm
09:30 PM -1.4°F-18.6°C -5.1°F-20.6°C 84% 2.0 mph N3.2 kmh N 5.0 mph8.0 kmh 30.45 in1031.2 mb 0.00 in0.0 mm 0.00 in0.0 mm 0.09 in2.3 mm
09:35 PM -1.4°F-18.6°C -4.8°F-20.4°C 85% 3.0 mph N4.8 kmh N 5.0 mph8.0 kmh 30.45 in1031.2 mb 0.00 in0.0 mm 0.00 in0.0 mm 0.09 in2.3 mm
09:40 PM -1.7°F-18.7°C -5.3°F-20.7°C 84% 3.0 mph N4.8 kmh N 6.0 mph9.7 kmh 30.45 in1031.2 mb 0.00 in0.0 mm 0.00 in0.0 mm 0.09 in2.3 mm
09:45 PM -2.2°F-19.0°C -5.8°F-21.0°C 84% 2.0 mph N3.2 kmh N 3.0 mph4.8 kmh 30.45 in1031.2 mb 0.00 in0.0 mm 0.00 in0.0 mm 0.09 in2.3 mm
09:50 PM -2.7°F-19.3°C -6.3°F-21.3°C 84% 3.0 mph N4.8 kmh N 5.0 mph8.0 kmh 30.45 in1031.2 mb 0.00 in0.0 mm 0.00 in0.0 mm 0.09 in2.3 mm
09:55 PM -3.1°F-19.5°C -7.0°F-21.7°C 83% 2.0 mph N3.2 kmh N 6.0 mph9.7 kmh 30.45 in1031.2 mb 0.00 in0.0 mm 0.00 in0.0 mm 0.09 in2.3 mm
10:00 PM -3.5°F-19.7°C -7.4°F-21.9°C 83% 2.0 mph N3.2 kmh N 3.0 mph4.8 kmh 30.45 in1031.2 mb 0.00 in0.0 mm 0.00 in0.0 mm 0.09 in2.3 mm
10:05 PM -3.6°F-19.8°C -7.2°F-21.8°C 84% 2.0 mph N3.2 kmh N 5.0 mph8.0 kmh 30.45 in1031.2 mb 0.00 in0.0 mm 0.00 in0.0 mm 0.09 in2.3 mm
10:10 PM -3.6°F-19.8°C -7.0°F-21.7°C 85% 3.0 mph N4.8 kmh N 5.0 mph8.0 kmh 30.45 in1031.2 mb 0.00 in0.0 mm 0.00 in0.0 mm 0.09 in2.3 mm
10:15 PM -3.6°F-19.8°C -7.0°F-21.7°C 85% 3.0 mph N4.8 kmh N 3.0 mph4.8 kmh 30.46 in1031.5 mb 0.00 in0.0 mm 0.00 in0.0 mm 0.09 in2.3 mm
10:20 PM -3.6°F-19.8°C -7.2°F-21.8°C 84% 3.0 mph N4.8 kmh N 4.0 mph6.4 kmh 30.47 in1031.8 mb 0.00 in0.0 mm 0.00 in0.0 mm 0.09 in2.3 mm
10:25 PM -3.9°F-19.9°C -7.5°F-21.9°C 84% 3.0 mph N4.8 kmh N 4.0 mph6.4 kmh 30.47 in1031.8 mb 0.00 in0.0 mm 0.00 in0.0 mm 0.09 in2.3 mm
10:30 PM -4.0°F-20.0°C -7.6°F-22.0°C 84% 1.0 mph N1.6 kmh N 2.0 mph3.2 kmh 30.47 in1031.8 mb 0.00 in0.0 mm 0.00 in0.0 mm 0.09 in2.3 mm
10:35 PM -4.0°F-20.0°C -7.4°F-21.9°C 85% 3.0 mph N4.8 kmh N 3.0 mph4.8 kmh 30.47 in1031.8 mb 0.00 in0.0 mm 0.00 in0.0 mm 0.09 in2.3 mm
10:40 PM -3.7°F-19.8°C -7.1°F-21.7°C 85% 3.0 mph N4.8 kmh N 4.0 mph6.4 kmh 30.47 in1031.8 mb 0.00 in0.0 mm 0.00 in0.0 mm 0.09 in2.3 mm
10:45 PM -3.3°F-19.6°C -6.4°F-21.3°C 86% 3.0 mph N4.8 kmh N 3.0 mph4.8 kmh 30.47 in1031.8 mb 0.00 in0.0 mm 0.00 in0.0 mm 0.09 in2.3 mm
10:50 PM -2.8°F-19.3°C -5.9°F-21.1°C 86% 3.0 mph N4.8 kmh N 6.0 mph9.7 kmh 30.46 in1031.5 mb 0.00 in0.0 mm 0.00 in0.0 mm 0.09 in2.3 mm
10:55 PM -2.6°F-19.2°C -5.7°F-20.9°C 86% 3.0 mph N4.8 kmh N 6.0 mph9.7 kmh 30.47 in1031.8 mb 0.00 in0.0 mm 0.00 in0.0 mm 0.09 in2.3 mm
11:00 PM -2.5°F-19.2°C -5.6°F-20.9°C 86% 2.0 mph N3.2 kmh N 3.0 mph4.8 kmh 30.47 in1031.8 mb 0.00 in0.0 mm 0.00 in0.0 mm 0.09 in2.3 mm
11:05 PM -2.4°F-19.1°C -5.6°F-20.9°C 86% 3.0 mph N4.8 kmh N 4.0 mph6.4 kmh 30.47 in1031.8 mb 0.00 in0.0 mm 0.00 in0.0 mm 0.09 in2.3 mm
11:10 PM -2.4°F-19.1°C -5.8°F-21.0°C 85% 2.0 mph N3.2 kmh N 4.0 mph6.4 kmh 30.47 in1031.8 mb 0.00 in0.0 mm 0.00 in0.0 mm 0.09 in2.3 mm
11:15 PM -2.4°F-19.1°C -5.8°F-21.0°C 85% 2.0 mph N3.2 kmh N 3.0 mph4.8 kmh 30.47 in1031.8 mb 0.00 in0.0 mm 0.00 in0.0 mm 0.09 in2.3 mm
11:20 PM -2.4°F-19.1°C -5.8°F-21.0°C 85% 3.0 mph N4.8 kmh N 5.0 mph8.0 kmh 30.48 in1032.2 mb 0.00 in0.0 mm 0.00 in0.0 mm 0.09 in2.3 mm
11:25 PM -2.2°F-19.0°C -5.4°F-20.8°C 86% 2.0 mph N3.2 kmh N 5.0 mph8.0 kmh 30.48 in1032.2 mb 0.00 in0.0 mm 0.00 in0.0 mm 0.09 in2.3 mm
11:30 PM -2.1°F-18.9°C -5.3°F-20.7°C 86% 3.0 mph N4.8 kmh N 5.0 mph8.0 kmh 30.48 in1032.2 mb 0.00 in0.0 mm 0.00 in0.0 mm 0.09 in2.3 mm
11:35 PM -2.1°F-18.9°C -5.5°F-20.8°C 85% 2.0 mph N3.2 kmh N 5.0 mph8.0 kmh 30.48 in1032.2 mb 0.00 in0.0 mm 0.00 in0.0 mm 0.09 in2.3 mm
11:40 PM -2.3°F-19.1°C -5.7°F-20.9°C 85% 3.0 mph N4.8 kmh N 5.0 mph8.0 kmh 30.48 in1032.2 mb 0.00 in0.0 mm 0.00 in0.0 mm 0.09 in2.3 mm
11:45 PM -2.5°F-19.2°C -6.1°F-21.2°C 84% 4.0 mph N6.4 kmh N 4.0 mph6.4 kmh 30.48 in1032.2 mb 0.00 in0.0 mm 0.00 in0.0 mm 0.09 in2.3 mm
11:50 PM -2.8°F-19.3°C -6.4°F-21.3°C 84% 3.0 mph N4.8 kmh N 5.0 mph8.0 kmh 30.48 in1032.2 mb 0.00 in0.0 mm 0.00 in0.0 mm 0.09 in2.3 mm
11:55 PM -3.2°F-19.6°C -7.1°F-21.7°C 83% 3.0 mph N4.8 kmh N 5.0 mph8.0 kmh 30.48 in1032.2 mb 0.00 in0.0 mm 0.00 in0.0 mm 0.09 in2.3 mm